Time,TemperatureF,DewpointF,PressureIn,WindDirection,WindDirectionDegrees,WindSpeedMPH,WindSpeedGustMPH,Humidity,HourlyPrecipIn,Conditions,Clouds,dailyrainin,SoftwareType,DateUTC
2013-11-09 00:00:00,41.6,37.7,30.14,NNW,329,0.0,3.0,86,0.00,,CLR,0.00,VWS V15.00,2013-11-09 08:00:00,
2013-11-09 00:02:00,41.8,37.9,30.13,NW,319,1.0,1.5,86,0.00,,CLR,0.00,VWS V14.01,2013-11-09 08:02:00,
2013-11-09 00:07:00,41.7,37.8,30.13,WNW,289,1.0,3.0,86,0.00,,CLR,0.00,VWS V14.01,2013-11-09 08:07:00,
2013-11-09 00:12:00,41.7,37.8,30.13,NW,312,0.0,3.0,86,0.00,,CLR,0.00,VWS V14.01,2013-11-09 08:12:00,
2013-11-09 00:17:00,41.7,37.8,30.13,NW,312,0.0,3.0,86,0.00,,CLR,0.00,VWS V14.01,2013-11-09 08:17:00,
2013-11-09 00:22:00,41.7,38.1,30.13,NW,312,0.0,3.0,87,0.00,,CLR,0.00,VWS V14.01,2013-11-09 08:22:00,
2013-11-09 00:27:00,42.0,38.4,30.13,NW,326,1.0,3.0,87,0.00,,CLR,0.00,VWS V14.01,2013-11-09 08:27:00,
2013-11-09 00:30:00,41.5,38.2,30.13,NW,319,1.0,1.5,88,0.00,,CLR,0.00,VWS V15.00,2013-11-09 08:30:00,
2013-11-09 00:32:00,42.3,38.4,30.13,NW,312,0.0,1.5,86,0.00,,CLR,0.00,VWS V14.01,2013-11-09 08:32:00,
2013-11-09 00:37:00,42.3,38.4,30.13,NW,321,2.0,3.0,86,0.00,,CLR,0.00,VWS V14.01,2013-11-09 08:37:00,
2013-11-09 00:42:00,42.3,38.1,30.13,NNW,329,0.0,3.0,85,0.00,,CLR,0.00,VWS V14.01,2013-11-09 08:42:00,
2013-11-09 00:47:00,42.1,38.2,30.13,NNW,329,0.0,3.0,86,0.00,,CLR,0.00,VWS V14.01,2013-11-09 08:47:00,
2013-11-09 00:52:00,41.9,38.0,30.14,NNW,329,0.0,3.0,86,0.00,,CLR,0.00,VWS V14.01,2013-11-09 08:52:00,
2013-11-09 00:58:00,41.7,37.8,30.14,NNW,329,0.0,3.0,86,0.00,,CLR,0.00,VWS V14.01,2013-11-09 08:58:00,
2013-11-09 01:00:00,40.2,37.2,30.14,South,184,1.0,3.0,89,0.00,,CLR,0.00,VWS V15.00,2013-11-09 09:00:00,
2013-11-09 01:03:00,41.6,38.0,30.13,NNW,329,0.0,0.0,87,0.00,,CLR,0.00,VWS V14.01,2013-11-09 09:03:00,
2013-11-09 01:08:00,41.6,38.0,30.13,NNW,329,1.0,1.5,87,0.00,,CLR,0.00,VWS V14.01,2013-11-09 09:08:00,
2013-11-09 01:13:00,41.6,38.0,30.13,NNW,329,0.0,1.5,87,0.00,,CLR,0.00,VWS V14.01,2013-11-09 09:13:00,
2013-11-09 01:18:00,41.6,38.3,30.13,NNW,329,1.0,1.5,88,0.00,,CLR,0.00,VWS V14.01,2013-11-09 09:18:00,
2013-11-09 01:23:00,41.7,38.1,30.13,NNW,331,0.0,1.5,87,0.00,,CLR,0.00,VWS V14.01,2013-11-09 09:23:00,
2013-11-09 01:28:00,41.6,38.3,30.13,NNW,331,0.0,1.5,88,0.00,,CLR,0.00,VWS V14.01,2013-11-09 09:28:00,
2013-11-09 01:30:00,40.0,37.0,30.14,SSW,192,1.0,4.5,89,0.00,,CLR,0.00,VWS V15.00,2013-11-09 09:30:00,
2013-11-09 01:33:00,41.5,38.2,30.14,WNW,293,1.0,1.5,88,0.00,,CLR,0.00,VWS V14.01,2013-11-09 09:33:00,
2013-11-09 01:38:00,41.3,38.0,30.14,West,276,1.0,1.5,88,0.00,,CLR,0.00,VWS V14.01,2013-11-09 09:38:00,
2013-11-09 01:43:00,41.2,37.9,30.14,SW,219,1.0,3.0,88,0.00,,CLR,0.00,VWS V14.01,2013-11-09 09:43:00,
2013-11-09 01:48:00,40.8,37.2,30.14,SW,219,2.0,3.0,87,0.00,,CLR,0.00,VWS V14.01,2013-11-09 09:48:00,
2013-11-09 01:53:00,40.4,37.1,30.14,SW,219,2.0,3.0,88,0.00,,CLR,0.00,VWS V14.01,2013-11-09 09:53:00,
2013-11-09 01:58:00,40.3,37.3,30.14,South,184,0.0,3.0,89,0.00,,CLR,0.00,VWS V14.01,2013-11-09 09:58:00,
2013-11-09 02:00:00,38.9,35.9,30.15,South,190,2.0,3.0,89,0.00,,CLR,0.00,VWS V15.00,2013-11-09 10:00:00,
2013-11-09 02:03:00,40.3,37.3,30.14,SSW,213,1.0,3.0,89,0.00,,CLR,0.00,VWS V14.01,2013-11-09 10:03:00,
2013-11-09 02:08:00,40.1,37.1,30.14,SW,222,2.0,3.0,89,0.00,,CLR,0.00,VWS V14.01,2013-11-09 10:08:00,
2013-11-09 02:13:00,40.0,37.0,30.14,SW,221,0.0,4.5,89,0.00,,CLR,0.00,VWS V14.01,2013-11-09 10:13:00,
2013-11-09 02:18:00,40.1,37.1,30.14,South,181,0.0,4.5,89,0.00,,CLR,0.00,VWS V14.01,2013-11-09 10:18:00,
2013-11-09 02:23:00,40.2,37.2,30.14,South,178,0.0,4.5,89,0.00,,CLR,0.00,VWS V14.01,2013-11-09 10:23:00,
2013-11-09 02:28:00,40.1,36.8,30.14,South,182,1.0,4.5,88,0.00,,CLR,0.00,VWS V14.01,2013-11-09 10:28:00,
2013-11-09 02:30:00,38.1,35.2,30.15,SW,220,3.0,7.5,89,0.00,,CLR,0.00,VWS V15.00,2013-11-09 10:30:00,
2013-11-09 02:33:00,40.0,37.0,30.14,SSW,192,1.0,1.5,89,0.00,,CLR,0.00,VWS V14.01,2013-11-09 10:33:00,
2013-11-09 02:38:00,40.1,36.8,30.14,South,187,1.0,1.5,88,0.00,,CLR,0.00,VWS V14.01,2013-11-09 10:38:00,
2013-11-09 02:43:00,40.0,36.7,30.15,SE,141,0.0,3.0,88,0.00,,CLR,0.00,VWS V14.01,2013-11-09 10:43:00,
2013-11-09 02:48:00,39.6,36.3,30.14,SSE,151,1.0,3.0,88,0.00,,CLR,0.00,VWS V14.01,2013-11-09 10:48:00,
2013-11-09 02:53:00,39.2,36.0,30.15,SE,143,0.0,3.0,88,0.00,,CLR,0.00,VWS V14.01,2013-11-09 10:53:00,
2013-11-09 02:58:00,38.9,35.9,30.15,South,178,1.0,3.0,89,0.00,,CLR,0.00,VWS V14.01,2013-11-09 10:58:00,
2013-11-09 03:00:00,38.1,35.2,30.15,SSW,210,0.0,6.0,89,0.00,,CLR,0.00,VWS V15.00,2013-11-09 11:00:00,
2013-11-09 03:03:00,39.0,36.0,30.15,SSW,206,2.0,3.0,89,0.00,,CLR,0.00,VWS V14.01,2013-11-09 11:03:00,
2013-11-09 03:08:00,39.0,35.8,30.15,SW,218,2.0,3.0,88,0.00,,CLR,0.00,VWS V14.01,2013-11-09 11:08:00,
2013-11-09 03:13:00,38.9,35.7,30.15,SSW,213,2.0,4.5,88,0.00,,CLR,0.00,VWS V14.01,2013-11-09 11:13:00,
2013-11-09 03:18:00,38.8,35.6,30.15,SW,216,2.0,4.5,88,0.00,,CLR,0.00,VWS V14.01,2013-11-09 11:18:00,
2013-11-09 03:23:00,38.5,35.3,30.14,SW,220,3.0,4.5,88,0.00,,CLR,0.00,VWS V14.01,2013-11-09 11:23:00,
2013-11-09 03:28:00,38.3,35.1,30.14,SW,224,4.0,7.5,88,0.00,,CLR,0.00,VWS V14.01,2013-11-09 11:28:00,
2013-11-09 03:30:00,37.3,34.9,30.15,SW,215,2.0,4.5,91,0.00,,CLR,0.00,VWS V15.00,2013-11-09 11:30:00,
2013-11-09 03:33:00,38.1,35.2,30.15,SSW,212,3.0,6.0,89,0.00,,CLR,0.00,VWS V14.01,2013-11-09 11:33:00,
2013-11-09 03:38:00,38.1,35.2,30.15,SW,215,3.0,6.0,89,0.00,,CLR,0.00,VWS V14.01,2013-11-09 11:38:00,
2013-11-09 03:43:00,38.2,35.2,30.15,SW,221,1.0,6.0,89,0.00,,CLR,0.00,VWS V14.01,2013-11-09 11:43:00,
2013-11-09 03:48:00,38.2,35.2,30.15,SW,216,2.0,6.0,89,0.00,,CLR,0.00,VWS V14.01,2013-11-09 11:48:00,
2013-11-09 03:53:00,38.2,35.2,30.15,SW,215,1.0,6.0,89,0.00,,CLR,0.00,VWS V14.01,2013-11-09 11:53:00,
2013-11-09 03:58:00,38.1,35.2,30.15,SSW,210,0.0,6.0,89,0.00,,CLR,0.00,VWS V14.01,2013-11-09 11:58:00,
2013-11-09 04:00:00,37.1,34.7,30.15,SE,136,0.0,4.5,91,0.00,,CLR,0.00,VWS V15.00,2013-11-09 12:00:00,
2013-11-09 04:03:00,38.0,35.0,30.15,East,91,0.0,1.5,89,0.00,,CLR,0.00,VWS V14.01,2013-11-09 12:03:00,
2013-11-09 04:08:00,37.8,34.9,30.15,SSE,157,1.0,1.5,89,0.00,,CLR,0.00,VWS V14.01,2013-11-09 12:08:00,
2013-11-09 04:13:00,37.6,34.9,30.15,SSE,153,0.0,3.0,90,0.00,,CLR,0.00,VWS V14.01,2013-11-09 12:13:00,
2013-11-09 04:18:00,37.4,34.7,30.15,SSW,195,0.0,3.0,90,0.00,,CLR,0.00,VWS V14.01,2013-11-09 12:18:00,
2013-11-09 04:23:00,37.3,34.6,30.15,SW,215,2.0,3.0,90,0.00,,CLR,0.00,VWS V14.01,2013-11-09 12:23:00,
2013-11-09 04:28:00,37.3,34.9,30.15,SW,224,3.0,4.5,91,0.00,,CLR,0.00,VWS V14.01,2013-11-09 12:28:00,
2013-11-09 04:30:00,37.6,34.9,30.15,SW,230,2.0,4.5,90,0.00,,CLR,0.00,VWS V15.00,2013-11-09 12:30:00,
2013-11-09 04:33:00,37.3,34.9,30.15,SSW,213,2.0,4.5,91,0.00,,CLR,0.00,VWS V14.01,2013-11-09 12:33:00,
2013-11-09 04:38:00,37.3,34.9,30.15,SSW,209,1.0,4.5,91,0.00,,CLR,0.00,VWS V14.01,2013-11-09 12:38:00,
2013-11-09 04:43:00,37.4,35.0,30.15,South,181,1.0,4.5,91,0.00,,CLR,0.00,VWS V14.01,2013-11-09 12:43:00,
2013-11-09 04:48:00,37.5,35.1,30.15,ESE,118,0.0,4.5,91,0.00,,CLR,0.00,VWS V14.01,2013-11-09 12:48:00,
2013-11-09 04:53:00,37.4,35.0,30.15,East,87,1.0,4.5,91,0.00,,CLR,0.00,VWS V14.01,2013-11-09 12:53:00,
2013-11-09 04:58:00,37.1,34.4,30.15,SE,139,0.0,4.5,90,0.00,,CLR,0.00,VWS V14.01,2013-11-09 12:58:00,
2013-11-09 05:00:00,37.2,34.8,30.15,SW,217,3.0,7.5,91,0.00,,CLR,0.00,VWS V15.00,2013-11-09 13:00:00,
2013-11-09 05:03:00,36.9,34.5,30.15,SSE,154,0.0,1.5,91,0.00,,CLR,0.00,VWS V14.01,2013-11-09 13:03:00,
2013-11-09 05:09:00,36.9,34.5,30.15,South,181,0.0,1.5,91,0.00,,CLR,0.00,VWS V14.01,2013-11-09 13:09:00,
2013-11-09 05:14:00,37.1,35.0,30.15,SSW,194,1.0,3.0,92,0.00,,CLR,0.00,VWS V14.01,2013-11-09 13:14:00,
2013-11-09 05:19:00,37.3,34.9,30.15,South,177,1.0,4.5,91,0.00,,CLR,0.00,VWS V14.01,2013-11-09 13:19:00,
2013-11-09 05:24:00,37.5,35.1,30.16,SSW,209,2.0,4.5,91,0.00,,CLR,0.00,VWS V14.01,2013-11-09 13:24:00,
2013-11-09 05:29:00,37.6,34.9,30.15,SW,216,3.0,4.5,90,0.00,,CLR,0.00,VWS V14.01,2013-11-09 13:29:00,
2013-11-09 05:30:00,37.5,35.1,30.16,SSW,195,2.0,9.0,91,0.00,,CLR,0.00,VWS V15.00,2013-11-09 13:30:00,
2013-11-09 05:34:00,37.4,34.7,30.15,SW,229,4.0,6.0,90,0.00,,CLR,0.00,VWS V14.01,2013-11-09 13:34:00,
2013-11-09 05:39:00,37.1,34.4,30.16,SW,227,4.0,7.5,90,0.00,,CLR,0.00,VWS V14.01,2013-11-09 13:39:00,
2013-11-09 05:44:00,37.0,34.3,30.15,SW,215,1.0,7.5,90,0.00,,CLR,0.00,VWS V14.01,2013-11-09 13:44:00,
2013-11-09 05:49:00,37.0,34.6,30.15,SSW,203,1.0,7.5,91,0.00,,CLR,0.00,VWS V14.01,2013-11-09 13:49:00,
2013-11-09 05:54:00,37.1,34.7,30.15,SSW,195,3.0,7.5,91,0.00,,CLR,0.00,VWS V14.01,2013-11-09 13:54:00,
2013-11-09 05:59:00,37.2,34.8,30.15,SW,221,2.0,7.5,91,0.00,,CLR,0.00,VWS V14.01,2013-11-09 13:59:00,
2013-11-09 06:00:00,36.5,34.1,30.16,SW,220,3.0,7.5,91,0.00,,CLR,0.00,VWS V15.00,2013-11-09 14:00:00,
2013-11-09 06:04:00,37.1,34.7,30.15,SW,229,3.0,6.0,91,0.00,,CLR,0.00,VWS V14.01,2013-11-09 14:04:00,
2013-11-09 06:09:00,37.1,34.7,30.16,SW,232,2.0,7.5,91,0.00,,CLR,0.00,VWS V14.01,2013-11-09 14:09:00,
2013-11-09 06:14:00,37.1,34.7,30.16,WSW,243,2.0,7.5,91,0.00,,CLR,0.00,VWS V14.01,2013-11-09 14:14:00,
2013-11-09 06:19:00,37.3,35.2,30.16,WSW,249,5.0,9.0,92,0.00,,CLR,0.00,VWS V14.01,2013-11-09 14:19:00,
2013-11-09 06:24:00,37.6,35.2,30.16,SW,228,1.0,9.0,91,0.00,,CLR,0.00,VWS V14.01,2013-11-09 14:24:00,
2013-11-09 06:30:00,37.5,35.1,30.16,SSW,211,2.0,9.0,91,0.00,,CLR,0.00,VWS V14.01,2013-11-09 14:30:00,
2013-11-09 06:35:00,37.1,34.4,30.16,SSW,196,2.0,4.5,90,0.00,,CLR,0.00,VWS V14.01,2013-11-09 14:35:00,
2013-11-09 06:40:00,36.9,34.5,30.16,SW,215,2.0,7.5,91,0.00,,CLR,0.00,VWS V14.01,2013-11-09 14:40:00,
2013-11-09 06:45:00,36.7,34.3,30.16,South,191,3.0,7.5,91,0.00,,CLR,0.00,VWS V14.01,2013-11-09 14:45:00,
2013-11-09 06:50:00,36.5,34.1,30.17,SSW,211,3.0,7.5,91,0.00,,CLR,0.00,VWS V14.01,2013-11-09 14:50:00,
2013-11-09 06:55:00,36.5,34.1,30.17,SSW,205,2.0,7.5,91,0.00,,CLR,0.00,VWS V14.01,2013-11-09 14:55:00,
2013-11-09 07:00:00,36.5,34.1,30.16,SW,221,3.0,7.5,91,0.00,,CLR,0.00,VWS V14.01,2013-11-09 15:00:00,
2013-11-09 07:05:00,36.4,34.0,30.17,SW,225,4.0,7.5,91,0.00,,CLR,0.00,VWS V14.01,2013-11-09 15:05:00,
2013-11-09 07:10:00,36.4,34.0,30.17,SW,224,3.0,7.5,91,0.00,,CLR,0.00,VWS V14.01,2013-11-09 15:10:00,
2013-11-09 07:15:00,36.6,34.5,30.17,SW,227,3.0,7.5,92,0.00,,CLR,0.00,VWS V14.01,2013-11-09 15:15:00,
2013-11-09 07:20:00,37.3,35.2,30.17,SW,226,2.0,13.5,92,0.00,,CLR,0.00,VWS V14.01,2013-11-09 15:20:00,
2013-11-09 07:25:00,37.3,34.9,30.17,SW,233,2.0,13.5,91,0.00,,CLR,0.00,VWS V14.01,2013-11-09 15:25:00,
2013-11-09 07:30:00,37.4,35.0,30.17,WSW,255,3.0,13.5,91,0.00,,CLR,0.00,VWS V14.01,2013-11-09 15:30:00,
2013-11-09 07:35:00,37.6,35.2,30.17,WSW,258,2.0,6.0,91,0.00,,CLR,0.00,VWS V14.01,2013-11-09 15:35:00,
2013-11-09 07:40:00,37.8,35.4,30.17,WNW,298,6.0,9.0,91,0.00,,CLR,0.00,VWS V14.01,2013-11-09 15:40:00,
2013-11-09 07:45:00,38.1,35.7,30.17,West,265,3.0,9.0,91,0.00,,CLR,0.00,VWS V14.01,2013-11-09 15:45:00,
2013-11-09 07:50:00,38.4,35.7,30.17,West,269,4.0,9.0,90,0.00,,CLR,0.00,VWS V14.01,2013-11-09 15:50:00,
2013-11-09 07:55:00,38.5,35.8,30.17,WSW,243,3.0,9.0,90,0.00,,CLR,0.00,VWS V14.01,2013-11-09 15:55:00,
2013-11-09 08:00:00,38.4,35.7,30.17,SW,217,2.0,9.0,90,0.00,,CLR,0.00,VWS V14.01,2013-11-09 16:00:00,
2013-11-09 08:05:00,38.3,35.6,30.17,SW,232,3.0,7.5,90,0.00,,CLR,0.00,VWS V14.01,2013-11-09 16:05:00,
2013-11-09 08:10:00,38.3,35.6,30.18,SW,234,2.0,7.5,90,0.00,,CLR,0.00,VWS V14.01,2013-11-09 16:10:00,
2013-11-09 08:15:00,38.3,35.6,30.18,WSW,244,4.0,7.5,90,0.00,,CLR,0.00,VWS V14.01,2013-11-09 16:15:00,
2013-11-09 08:20:00,38.4,35.7,30.19,SSW,212,4.0,10.5,90,0.00,,CLR,0.00,VWS V14.01,2013-11-09 16:20:00,
2013-11-09 08:25:00,38.5,35.8,30.19,SW,232,4.0,10.5,90,0.00,,CLR,0.00,VWS V14.01,2013-11-09 16:25:00,
2013-11-09 08:30:00,38.6,35.6,30.19,SW,224,6.0,12.0,89,0.00,,CLR,0.00,VWS V14.01,2013-11-09 16:30:00,
2013-11-09 08:35:00,38.6,35.6,30.19,WSW,244,5.0,10.5,89,0.00,,CLR,0.00,VWS V14.01,2013-11-09 16:35:00,
2013-11-09 08:40:00,38.8,36.1,30.19,WNW,285,3.0,10.5,90,0.00,,CLR,0.00,VWS V14.01,2013-11-09 16:40:00,
2013-11-09 08:45:00,39.0,36.0,30.18,West,272,1.0,10.5,89,0.00,,CLR,0.00,VWS V14.01,2013-11-09 16:45:00,
2013-11-09 08:50:00,39.2,36.5,30.18,WNW,287,3.0,10.5,90,0.00,,CLR,0.00,VWS V14.01,2013-11-09 16:50:00,
2013-11-09 08:55:00,39.6,36.9,30.18,WNW,288,3.0,10.5,90,0.00,,CLR,0.00,VWS V14.01,2013-11-09 16:55:00,
2013-11-09 09:00:00,40.0,37.0,30.18,NW,304,1.0,10.5,89,0.00,,CLR,0.00,VWS V14.01,2013-11-09 17:00:00,
2013-11-09 09:05:00,40.4,37.1,30.17,West,277,6.0,12.0,88,0.00,,CLR,0.00,VWS V14.01,2013-11-09 17:05:00,
2013-11-09 09:10:00,40.8,37.2,30.17,NNW,345,5.0,12.0,87,0.00,,CLR,0.00,VWS V14.01,2013-11-09 17:10:00,
2013-11-09 09:15:00,41.1,37.5,30.17,West,281,5.0,12.0,87,0.00,,CLR,0.00,VWS V14.01,2013-11-09 17:15:00,
2013-11-09 09:20:00,41.5,37.6,30.17,West,279,4.0,12.0,86,0.00,,CLR,0.00,VWS V14.01,2013-11-09 17:20:00,
2013-11-09 09:25:00,41.8,37.9,30.17,NW,305,5.0,12.0,86,0.00,,CLR,0.00,VWS V14.01,2013-11-09 17:25:00,
2013-11-09 09:30:00,42.3,38.4,30.17,WNW,293,4.0,6.0,86,0.00,,CLR,0.00,VWS V14.01,2013-11-09 17:30:00,
2013-11-09 09:35:00,43.1,39.2,30.17,West,266,6.0,9.0,86,0.00,,CLR,0.00,VWS V14.01,2013-11-09 17:35:00,
2013-11-09 09:40:00,43.8,39.6,30.17,SW,232,5.0,10.5,85,0.00,,CLR,0.00,VWS V14.01,2013-11-09 17:40:00,
2013-11-09 09:45:00,44.5,39.0,30.17,WSW,258,4.0,13.5,81,0.00,,CLR,0.00,VWS V14.01,2013-11-09 17:45:00,
2013-11-09 09:51:00,44.7,38.9,30.17,West,272,5.0,13.5,80,0.00,,CLR,0.00,VWS V14.01,2013-11-09 17:51:00,
2013-11-09 09:56:00,45.0,38.9,30.17,WSW,253,8.0,18.0,79,0.00,,CLR,0.00,VWS V14.01,2013-11-09 17:56:00,
2013-11-09 10:00:00,47.5,39.6,30.16,West,265,8.0,15.0,74,0.00,,CLR,0.00,VWS V15.00,2013-11-09 18:00:00,
2013-11-09 10:01:00,45.3,38.9,30.17,West,268,7.0,12.0,78,0.00,,CLR,0.00,VWS V14.01,2013-11-09 18:01:00,
2013-11-09 10:06:00,45.8,39.3,30.16,West,266,5.0,12.0,78,0.00,,CLR,0.00,VWS V14.01,2013-11-09 18:06:00,
2013-11-09 10:11:00,45.9,39.8,30.17,West,279,7.0,13.5,79,0.00,,CLR,0.00,VWS V14.01,2013-11-09 18:11:00,
2013-11-09 10:16:00,45.9,39.1,30.17,SW,234,10.0,15.0,77,0.00,,CLR,0.00,VWS V14.01,2013-11-09 18:16:00,
2013-11-09 10:21:00,46.2,39.7,30.17,WSW,248,7.0,15.0,78,0.00,,CLR,0.00,VWS V14.01,2013-11-09 18:21:00,
2013-11-09 10:26:00,46.2,38.7,30.17,West,267,5.0,15.0,75,0.00,,CLR,0.00,VWS V14.01,2013-11-09 18:26:00,
2013-11-09 10:30:00,48.3,39.3,30.16,SW,229,7.0,19.5,71,0.00,,CLR,0.00,VWS V15.00,2013-11-09 18:30:00,
2013-11-09 10:31:00,46.4,39.3,30.16,WNW,289,6.0,12.0,76,0.00,,CLR,0.00,VWS V14.01,2013-11-09 18:31:00,
2013-11-09 10:36:00,46.6,39.1,30.17,SW,230,6.0,13.5,75,0.00,,CLR,0.00,VWS V14.01,2013-11-09 18:36:00,
2013-11-09 10:41:00,46.7,39.2,30.16,West,260,4.0,13.5,75,0.00,,CLR,0.00,VWS V14.01,2013-11-09 18:41:00,
2013-11-09 10:46:00,47.1,39.9,30.16,West,262,3.0,13.5,76,0.00,,CLR,0.00,VWS V14.01,2013-11-09 18:46:00,
2013-11-09 10:51:00,47.1,39.2,30.16,WSW,241,6.0,13.5,74,0.00,,CLR,0.00,VWS V14.01,2013-11-09 18:51:00,
2013-11-09 10:56:00,47.3,39.8,30.16,WNW,283,3.0,15.0,75,0.00,,CLR,0.00,VWS V14.01,2013-11-09 18:56:00,
2013-11-09 11:00:00,48.5,39.5,30.14,SW,236,9.0,18.0,71,0.00,,CLR,0.00,VWS V15.00,2013-11-09 19:00:00,
2013-11-09 11:01:00,47.5,39.6,30.16,WNW,303,7.0,12.0,74,0.00,,CLR,0.00,VWS V14.01,2013-11-09 19:01:00,
2013-11-09 11:06:00,47.4,39.2,30.16,West,267,5.0,12.0,73,0.00,,CLR,0.00,VWS V14.01,2013-11-09 19:06:00,
2013-11-09 11:11:00,47.7,39.8,30.16,SW,224,8.0,13.5,74,0.00,,CLR,0.00,VWS V14.01,2013-11-09 19:11:00,
2013-11-09 11:16:00,47.8,39.6,30.15,West,265,8.0,13.5,73,0.00,,CLR,0.00,VWS V14.01,2013-11-09 19:16:00,
2013-11-09 11:21:00,48.0,39.8,30.15,WSW,255,5.0,16.5,73,0.00,,CLR,0.00,VWS V14.01,2013-11-09 19:21:00,
2013-11-09 11:26:00,48.3,40.1,30.16,SW,235,8.0,16.5,73,0.00,,CLR,0.00,VWS V14.01,2013-11-09 19:26:00,
2013-11-09 11:30:00,48.0,38.7,30.14,WSW,244,8.0,21.0,70,0.00,,CLR,0.00,VWS V15.00,2013-11-09 19:30:00,
2013-11-09 11:31:00,48.3,39.7,30.16,SW,220,5.0,12.0,72,0.00,,CLR,0.00,VWS V14.01,2013-11-09 19:31:00,
2013-11-09 11:36:00,48.2,39.6,30.15,SW,232,5.0,16.5,72,0.00,,CLR,0.00,VWS V14.01,2013-11-09 19:36:00,
2013-11-09 11:41:00,48.4,39.8,30.15,WSW,237,9.0,16.5,72,0.00,,CLR,0.00,VWS V14.01,2013-11-09 19:41:00,
2013-11-09 11:46:00,48.4,39.8,30.15,SW,236,6.0,16.5,72,0.00,,CLR,0.00,VWS V14.01,2013-11-09 19:46:00,
2013-11-09 11:51:00,48.5,39.9,30.15,SW,233,5.0,16.5,72,0.00,,CLR,0.00,VWS V14.01,2013-11-09 19:51:00,
2013-11-09 11:56:00,48.7,39.7,30.14,SW,234,10.0,16.5,71,0.00,,CLR,0.00,VWS V14.01,2013-11-09 19:56:00,
2013-11-09 12:00:00,47.8,38.5,30.12,WSW,243,8.0,18.0,70,0.00,,CLR,0.00,VWS V15.00,2013-11-09 20:00:00,
2013-11-09 12:01:00,48.4,39.4,30.14,SW,227,7.0,16.5,71,0.00,,CLR,0.00,VWS V14.01,2013-11-09 20:01:00,
2013-11-09 12:06:00,48.4,39.8,30.14,WSW,257,7.0,16.5,72,0.00,,CLR,0.00,VWS V14.01,2013-11-09 20:06:00,
2013-11-09 12:11:00,48.2,38.9,30.13,WSW,243,9.0,21.0,70,0.00,,CLR,0.00,VWS V14.01,2013-11-09 20:11:00,
2013-11-09 12:16:00,48.0,39.1,30.14,WSW,257,9.0,21.0,71,0.00,,CLR,0.00,VWS V14.01,2013-11-09 20:16:00,
2013-11-09 12:21:00,48.0,39.4,30.14,WSW,237,9.0,21.0,72,0.00,,CLR,0.00,VWS V14.01,2013-11-09 20:21:00,
2013-11-09 12:26:00,48.0,39.1,30.14,WSW,256,7.0,21.0,71,0.00,,CLR,0.00,VWS V14.01,2013-11-09 20:26:00,
2013-11-09 12:30:00,47.8,38.5,30.14,SW,234,13.0,22.5,70,0.00,,CLR,0.00,VWS V15.00,2013-11-09 20:30:00,
2013-11-09 12:31:00,48.0,38.7,30.14,SW,220,7.0,16.5,70,0.00,,CLR,0.00,VWS V14.01,2013-11-09 20:31:00,
2013-11-09 12:36:00,47.9,38.6,30.13,WSW,241,8.0,18.0,70,0.00,,CLR,0.00,VWS V14.01,2013-11-09 20:36:00,
2013-11-09 12:41:00,47.8,38.5,30.13,WSW,246,6.0,18.0,70,0.00,,CLR,0.00,VWS V14.01,2013-11-09 20:41:00,
2013-11-09 12:46:00,47.8,38.5,30.13,SW,223,8.0,18.0,70,0.00,,CLR,0.00,VWS V14.01,2013-11-09 20:46:00,
2013-11-09 12:51:00,47.8,38.5,30.13,WNW,285,9.0,18.0,70,0.00,,CLR,0.00,VWS V14.01,2013-11-09 20:51:00,
2013-11-09 12:56:00,47.8,38.9,30.12,West,267,8.0,18.0,71,0.00,,CLR,0.00,VWS V14.01,2013-11-09 20:56:00,
2013-11-09 13:00:00,47.3,38.4,30.12,WSW,238,8.0,21.0,71,0.00,,CLR,0.00,VWS V15.00,2013-11-09 21:00:00,
2013-11-09 13:01:00,47.8,38.5,30.12,West,262,8.0,13.5,70,0.00,,OVC110,0.00,VWS V14.01,2013-11-09 21:01:00,
2013-11-09 13:06:00,48.0,38.7,30.13,SW,228,7.0,16.5,70,0.00,,OVC110,0.00,VWS V14.01,2013-11-09 21:06:00,
2013-11-09 13:11:00,48.0,39.1,30.13,SW,233,11.0,19.5,71,0.00,,OVC110,0.00,VWS V14.01,2013-11-09 21:11:00,
2013-11-09 13:17:00,48.0,39.1,30.13,SW,233,9.0,19.5,71,0.00,,OVC110,0.00,VWS V14.01,2013-11-09 21:17:00,
2013-11-09 13:22:00,47.9,39.0,30.13,WSW,254,8.0,22.5,71,0.00,,OVC110,0.00,VWS V14.01,2013-11-09 21:22:00,
2013-11-09 13:27:00,47.8,38.5,30.14,WSW,252,6.0,22.5,70,0.00,,OVC110,0.00,VWS V14.01,2013-11-09 21:27:00,
2013-11-09 13:30:00,47.3,38.7,30.12,WSW,241,7.0,18.0,72,0.00,,CLR,0.00,VWS V15.00,2013-11-09 21:30:00,
2013-11-09 13:32:00,47.8,38.5,30.14,West,261,8.0,19.5,70,0.00,,OVC110,0.00,VWS V14.01,2013-11-09 21:32:00,
2013-11-09 13:37:00,47.7,38.4,30.13,SW,226,11.0,19.5,70,0.00,,OVC110,0.00,VWS V14.01,2013-11-09 21:37:00,
2013-11-09 13:42:00,47.7,38.8,30.13,WSW,240,10.0,19.5,71,0.00,,OVC110,0.00,VWS V14.01,2013-11-09 21:42:00,
2013-11-09 13:47:00,47.7,38.8,30.13,SW,229,8.0,19.5,71,0.00,,OVC110,0.00,VWS V14.01,2013-11-09 21:47:00,
2013-11-09 13:52:00,47.5,38.2,30.13,SW,234,11.0,21.0,70,0.00,,OVC110,0.00,VWS V14.01,2013-11-09 21:52:00,
2013-11-09 13:57:00,47.3,38.0,30.12,SW,231,8.0,21.0,70,0.00,,OVC110,0.00,VWS V14.01,2013-11-09 21:57:00,
2013-11-09 14:00:00,47.3,38.4,30.12,WSW,251,8.0,18.0,71,0.00,,CLR,0.00,VWS V15.00,2013-11-09 22:00:00,
2013-11-09 14:02:00,47.3,38.4,30.12,SW,233,8.0,16.5,71,0.00,,OVC100,0.00,VWS V14.01,2013-11-09 22:02:00,
2013-11-09 14:07:00,47.3,38.4,30.12,SW,224,10.0,18.0,71,0.00,,OVC100,0.00,VWS V14.01,2013-11-09 22:07:00,
2013-11-09 14:12:00,47.3,38.4,30.12,SW,227,7.0,18.0,71,0.00,,OVC100,0.00,VWS V14.01,2013-11-09 22:12:00,
2013-11-09 14:17:00,47.2,38.3,30.12,SW,226,7.0,18.0,71,0.00,,OVC100,0.00,VWS V14.01,2013-11-09 22:17:00,
2013-11-09 14:22:00,47.2,38.3,30.12,SW,230,9.0,18.0,71,0.00,,OVC100,0.00,VWS V14.01,2013-11-09 22:22:00,
2013-11-09 14:27:00,47.2,38.3,30.12,WSW,240,5.0,18.0,71,0.00,,OVC100,0.00,VWS V14.01,2013-11-09 22:27:00,
2013-11-09 14:30:00,47.4,38.5,30.12,WSW,239,5.0,19.5,71,0.00,,CLR,0.00,VWS V15.00,2013-11-09 22:30:00,
2013-11-09 14:32:00,47.3,38.4,30.12,SW,229,10.0,16.5,71,0.00,,OVC100,0.00,VWS V14.01,2013-11-09 22:32:00,
2013-11-09 14:37:00,47.3,38.4,30.12,WSW,244,8.0,16.5,71,0.00,,OVC100,0.00,VWS V14.01,2013-11-09 22:37:00,
2013-11-09 14:42:00,47.2,38.3,30.12,WSW,238,5.0,16.5,71,0.00,,OVC100,0.00,VWS V14.01,2013-11-09 22:42:00,
2013-11-09 14:47:00,47.3,38.4,30.12,WSW,244,8.0,16.5,71,0.00,,OVC100,0.00,VWS V14.01,2013-11-09 22:47:00,
2013-11-09 14:52:00,47.2,38.3,30.12,WSW,239,6.0,18.0,71,0.00,,OVC100,0.00,VWS V14.01,2013-11-09 22:52:00,
2013-11-09 14:57:00,47.3,38.4,30.12,WSW,239,6.0,18.0,71,0.00,,OVC100,0.00,VWS V14.01,2013-11-09 22:57:00,
2013-11-09 15:00:00,47.2,38.7,30.11,SW,231,7.0,15.0,72,0.00,,CLR,0.00,VWS V15.00,2013-11-09 23:00:00,
2013-11-09 15:02:00,47.3,38.4,30.12,West,267,10.0,19.5,71,0.00,,OVC090,0.00,VWS V14.01,2013-11-09 23:02:00,
2013-11-09 15:07:00,47.3,38.4,30.12,SW,233,6.0,19.5,71,0.00,,OVC090,0.00,VWS V14.01,2013-11-09 23:07:00,
2013-11-09 15:12:00,47.4,38.5,30.12,WSW,237,8.0,19.5,71,0.00,,OVC090,0.00,VWS V14.01,2013-11-09 23:12:00,
2013-11-09 15:17:00,47.4,38.5,30.12,SW,233,7.0,19.5,71,0.00,,OVC090,0.00,VWS V14.01,2013-11-09 23:17:00,
2013-11-09 15:22:00,47.4,38.5,30.12,SW,235,8.0,19.5,71,0.00,,OVC090,0.00,VWS V14.01,2013-11-09 23:22:00,
2013-11-09 15:27:00,47.4,38.5,30.12,SW,216,9.0,19.5,71,0.00,,OVC090,0.00,VWS V14.01,2013-11-09 23:27:00,
2013-11-09 15:30:00,46.5,38.7,30.12,SW,225,5.0,12.0,74,0.00,,CLR,0.00,VWS V15.00,2013-11-09 23:30:00,
2013-11-09 15:32:00,47.4,38.8,30.12,SW,226,5.0,12.0,72,0.00,,OVC090,0.00,VWS V14.01,2013-11-09 23:32:00,
2013-11-09 15:37:00,47.4,38.8,30.12,WSW,237,9.0,13.5,72,0.00,,OVC090,0.00,VWS V14.01,2013-11-09 23:37:00,
2013-11-09 15:42:00,47.3,38.7,30.12,SW,223,6.0,15.0,72,0.00,,OVC090,0.00,VWS V14.01,2013-11-09 23:42:00,
2013-11-09 15:47:00,47.2,38.7,30.12,SW,221,8.0,15.0,72,0.00,,OVC090,0.00,VWS V14.01,2013-11-09 23:47:00,
2013-11-09 15:52:00,47.2,38.7,30.12,SW,226,9.0,15.0,72,0.00,,OVC090,0.00,VWS V14.01,2013-11-09 23:52:00,
2013-11-09 15:57:00,47.2,38.7,30.12,SW,236,8.0,15.0,72,0.00,,OVC090,0.00,VWS V14.01,2013-11-09 23:57:00,
2013-11-09 16:00:00,46.0,38.5,30.12,SW,220,6.0,15.0,75,0.00,,CLR,0.00,VWS V15.00,2013-11-10 00:00:00,
2013-11-09 16:02:00,47.1,38.5,30.11,WSW,238,6.0,10.5,72,0.00,,OVC095,0.00,VWS V14.01,2013-11-10 00:02:00,
2013-11-09 16:07:00,47.1,38.9,30.12,SW,224,5.0,12.0,73,0.00,,OVC095,0.00,VWS V14.01,2013-11-10 00:07:00,
2013-11-09 16:12:00,47.0,38.8,30.12,SW,219,4.0,12.0,73,0.00,,OVC095,0.00,VWS V14.01,2013-11-10 00:12:00,
2013-11-09 16:17:00,46.8,38.6,30.12,SW,227,4.0,12.0,73,0.00,,OVC095,0.00,VWS V14.01,2013-11-10 00:17:00,
2013-11-09 16:22:00,46.7,38.9,30.12,SW,226,7.0,12.0,74,0.00,,OVC095,0.00,VWS V14.01,2013-11-10 00:22:00,
2013-11-09 16:27:00,46.5,38.7,30.12,SW,226,7.0,12.0,74,0.00,,OVC095,0.00,VWS V14.01,2013-11-10 00:27:00,
2013-11-09 16:30:00,45.6,38.5,30.12,SSW,206,9.0,15.0,76,0.00,,CLR,0.00,VWS V15.00,2013-11-10 00:30:00,
2013-11-09 16:32:00,46.4,38.9,30.12,SW,220,6.0,9.0,75,0.00,,OVC095,0.00,VWS V14.01,2013-11-10 00:32:00,
2013-11-09 16:38:00,46.3,38.8,30.11,West,259,5.0,10.5,75,0.00,,OVC095,0.00,VWS V14.01,2013-11-10 00:38:00,
2013-11-09 16:43:00,46.3,38.5,30.11,SW,223,5.0,15.0,74,0.00,,OVC095,0.00,VWS V14.01,2013-11-10 00:43:00,
2013-11-09 16:48:00,46.2,38.7,30.11,SW,228,8.0,15.0,75,0.00,,OVC095,0.00,VWS V14.01,2013-11-10 00:48:00,
2013-11-09 16:53:00,46.1,38.6,30.12,SW,217,3.0,15.0,75,0.00,,OVC095,0.00,VWS V14.01,2013-11-10 00:53:00,
2013-11-09 16:58:00,46.1,38.6,30.12,SW,224,6.0,15.0,75,0.00,,OVC095,0.00,VWS V14.01,2013-11-10 00:58:00,
2013-11-09 17:00:00,45.4,38.3,30.12,SW,220,5.0,16.5,76,0.00,,CLR,0.00,VWS V15.00,2013-11-10 01:00:00,
2013-11-09 17:03:00,45.9,38.4,30.12,WSW,237,4.0,12.0,75,0.00,,OVC090,0.00,VWS V14.01,2013-11-10 01:03:00,
2013-11-09 17:08:00,45.9,38.8,30.12,SSW,206,6.0,13.5,76,0.00,,OVC090,0.00,VWS V14.01,2013-11-10 01:08:00,
2013-11-09 17:13:00,45.8,38.7,30.12,SW,216,4.0,13.5,76,0.00,,OVC090,0.00,VWS V14.01,2013-11-10 01:13:00,
2013-11-09 17:18:00,45.7,38.6,30.12,SW,226,8.0,13.5,76,0.00,,OVC090,0.00,VWS V14.01,2013-11-10 01:18:00,
2013-11-09 17:23:00,45.6,38.5,30.12,SW,226,5.0,13.5,76,0.00,,OVC090,0.00,VWS V14.01,2013-11-10 01:23:00,
2013-11-09 17:28:00,45.6,38.5,30.12,SSW,195,5.0,13.5,76,0.00,,OVC090,0.00,VWS V14.01,2013-11-10 01:28:00,
2013-11-09 17:30:00,45.5,38.4,30.12,SW,234,5.0,15.0,76,0.00,,CLR,0.00,VWS V15.00,2013-11-10 01:30:00,
2013-11-09 17:33:00,45.6,38.5,30.12,SW,234,6.0,15.0,76,0.00,,OVC090,0.00,VWS V14.01,2013-11-10 01:33:00,
2013-11-09 17:38:00,45.6,38.2,30.12,SSW,213,4.0,16.5,75,0.00,,OVC090,0.00,VWS V14.01,2013-11-10 01:38:00,
2013-11-09 17:43:00,45.6,38.2,30.12,SW,230,9.0,16.5,75,0.00,,OVC090,0.00,VWS V14.01,2013-11-10 01:43:00,
2013-11-09 17:48:00,45.5,38.0,30.12,SW,220,5.0,16.5,75,0.00,,OVC090,0.00,VWS V14.01,2013-11-10 01:48:00,
2013-11-09 17:53:00,45.5,38.0,30.12,SSW,199,9.0,16.5,75,0.00,,OVC090,0.00,VWS V14.01,2013-11-10 01:53:00,
2013-11-09 17:58:00,45.4,38.3,30.12,SW,234,5.0,16.5,76,0.00,,OVC090,0.00,VWS V14.01,2013-11-10 01:58:00,
2013-11-09 18:00:00,45.5,38.4,30.12,SW,224,3.0,12.0,76,0.00,,CLR,0.00,VWS V15.00,2013-11-10 02:00:00,
2013-11-09 18:03:00,45.4,38.3,30.13,SW,231,7.0,15.0,76,0.00,,OVC085,0.00,VWS V14.01,2013-11-10 02:03:00,
2013-11-09 18:08:00,45.4,38.3,30.13,SW,230,6.0,15.0,76,0.00,,OVC085,0.00,VWS V14.01,2013-11-10 02:08:00,
2013-11-09 18:13:00,45.4,38.3,30.13,SW,221,8.0,15.0,76,0.00,,OVC085,0.00,VWS V14.01,2013-11-10 02:13:00,
2013-11-09 18:18:00,45.4,38.3,30.13,SW,228,4.0,15.0,76,0.00,,OVC085,0.00,VWS V14.01,2013-11-10 02:18:00,
2013-11-09 18:23:00,45.5,38.4,30.12,SW,226,6.0,15.0,76,0.00,,OVC085,0.00,VWS V14.01,2013-11-10 02:23:00,
2013-11-09 18:28:00,45.5,38.4,30.12,WSW,237,6.0,15.0,76,0.00,,OVC085,0.00,VWS V14.01,2013-11-10 02:28:00,
2013-11-09 18:30:00,45.7,38.2,30.12,SW,224,6.0,12.0,75,0.00,,CLR,0.00,VWS V15.00,2013-11-10 02:30:00,
2013-11-09 18:33:00,45.5,38.4,30.12,West,261,4.0,10.5,76,0.00,,OVC085,0.00,VWS V14.01,2013-11-10 02:33:00,
2013-11-09 18:38:00,45.6,38.5,30.12,WSW,243,4.0,12.0,76,0.00,,OVC085,0.00,VWS V14.01,2013-11-10 02:38:00,
2013-11-09 18:43:00,45.5,38.7,30.12,SW,222,4.0,12.0,77,0.00,,OVC085,0.00,VWS V14.01,2013-11-10 02:43:00,
2013-11-09 18:48:00,45.5,38.4,30.12,SW,222,4.0,12.0,76,0.00,,OVC085,0.00,VWS V14.01,2013-11-10 02:48:00,
2013-11-09 18:53:00,45.5,38.7,30.12,SW,227,3.0,12.0,77,0.00,,OVC085,0.00,VWS V14.01,2013-11-10 02:53:00,
2013-11-09 18:58:00,45.5,38.4,30.12,SW,220,3.0,12.0,76,0.00,,OVC085,0.00,VWS V14.01,2013-11-10 02:58:00,
2013-11-09 19:00:00,45.8,38.3,30.12,SW,228,5.0,12.0,75,0.00,,CLR,0.00,VWS V15.00,2013-11-10 03:00:00,
2013-11-09 19:03:00,45.5,38.4,30.12,SSW,213,4.0,10.5,76,0.00,,OVC080,0.00,VWS V14.01,2013-11-10 03:03:00,
2013-11-09 19:08:00,45.5,38.4,30.12,SW,223,4.0,10.5,76,0.00,,OVC080,0.00,VWS V14.01,2013-11-10 03:08:00,
2013-11-09 19:14:00,45.5,38.4,30.12,SW,223,5.0,10.5,76,0.00,,OVC080,0.00,VWS V14.01,2013-11-10 03:14:00,
2013-11-09 19:19:00,45.6,38.5,30.12,SW,230,5.0,12.0,76,0.00,,OVC080,0.00,VWS V14.01,2013-11-10 03:19:00,
2013-11-09 19:24:00,45.7,38.2,30.12,SW,225,6.0,12.0,75,0.00,,OVC080,0.00,VWS V14.01,2013-11-10 03:24:00,
2013-11-09 19:29:00,45.8,38.3,30.12,SSW,196,3.0,12.0,75,0.00,,OVC080,0.00,VWS V14.01,2013-11-10 03:29:00,
2013-11-09 19:30:00,45.6,38.5,30.12,SW,221,4.0,10.5,76,0.00,,CLR,0.00,VWS V15.00,2013-11-10 03:30:00,
2013-11-09 19:34:00,45.8,38.3,30.12,SW,224,5.0,12.0,75,0.00,,OVC080,0.00,VWS V14.01,2013-11-10 03:34:00,
2013-11-09 19:39:00,45.8,38.3,30.12,SW,225,6.0,12.0,75,0.00,,OVC080,0.00,VWS V14.01,2013-11-10 03:39:00,
2013-11-09 19:44:00,45.8,38.3,30.12,SW,223,5.0,12.0,75,0.00,,OVC080,0.00,VWS V14.01,2013-11-10 03:44:00,
2013-11-09 19:49:00,45.8,38.3,30.12,SW,231,6.0,12.0,75,0.00,,OVC080,0.00,VWS V14.01,2013-11-10 03:49:00,
2013-11-09 19:54:00,45.8,38.3,30.12,SW,229,4.0,12.0,75,0.00,,OVC080,0.00,VWS V14.01,2013-11-10 03:54:00,
2013-11-09 19:59:00,45.8,38.3,30.12,SW,226,5.0,12.0,75,0.00,,OVC080,0.00,VWS V14.01,2013-11-10 03:59:00,
2013-11-09 20:00:00,44.9,38.1,30.12,WSW,255,2.0,9.0,77,0.00,,CLR,0.00,VWS V15.00,2013-11-10 04:00:00,
2013-11-09 20:04:00,45.7,38.2,30.12,SW,224,4.0,10.5,75,0.00,,OVC075,0.00,VWS V14.01,2013-11-10 04:04:00,
2013-11-09 20:09:00,45.6,38.2,30.12,SW,221,6.0,10.5,75,0.00,,OVC075,0.00,VWS V14.01,2013-11-10 04:09:00,
2013-11-09 20:14:00,45.6,38.5,30.12,SW,223,3.0,10.5,76,0.00,,OVC075,0.00,VWS V14.01,2013-11-10 04:14:00,
2013-11-09 20:19:00,45.6,38.5,30.12,SSW,206,3.0,10.5,76,0.00,,OVC075,0.00,VWS V14.01,2013-11-10 04:19:00,
2013-11-09 20:24:00,45.6,38.5,30.12,SSW,206,2.0,10.5,76,0.00,,OVC075,0.00,VWS V14.01,2013-11-10 04:24:00,
2013-11-09 20:29:00,45.6,38.5,30.12,SW,222,3.0,10.5,76,0.00,,OVC075,0.00,VWS V14.01,2013-11-10 04:29:00,
2013-11-09 20:30:00,44.6,38.2,30.13,SW,227,2.0,6.0,78,0.00,,CLR,0.00,VWS V15.00,2013-11-10 04:30:00,
2013-11-09 20:34:00,45.5,38.4,30.12,SSW,213,3.0,9.0,76,0.00,,OVC075,0.00,VWS V14.01,2013-11-10 04:34:00,
2013-11-09 20:39:00,45.5,38.4,30.13,South,187,2.0,9.0,76,0.00,,OVC075,0.00,VWS V14.01,2013-11-10 04:39:00,
2013-11-09 20:44:00,45.5,38.4,30.13,SSW,210,2.0,9.0,76,0.00,,OVC075,0.00,VWS V14.01,2013-11-10 04:44:00,
2013-11-09 20:49:00,45.4,38.3,30.13,SSW,209,3.0,9.0,76,0.00,,OVC075,0.00,VWS V14.01,2013-11-10 04:49:00,
2013-11-09 20:54:00,45.2,38.1,30.13,SW,222,3.0,9.0,76,0.00,,OVC075,0.00,VWS V14.01,2013-11-10 04:54:00,
2013-11-09 20:59:00,45.0,38.2,30.12,WSW,239,2.0,9.0,77,0.00,,OVC075,0.00,VWS V14.01,2013-11-10 04:59:00,
2013-11-09 21:00:00,44.5,38.4,30.13,SSW,199,2.0,6.0,79,0.00,,CLR,0.00,VWS V15.00,2013-11-10 05:00:00,
2013-11-09 21:01:00,44.9,38.1,30.13,WSW,245,3.0,4.5,77,0.00,,OVC090,0.00,VWS V14.01,2013-11-10 05:01:00,
2013-11-09 21:02:00,44.9,38.1,30.12,SW,234,3.0,4.5,77,0.00,,OVC090,0.00,VWS V14.01,2013-11-10 05:02:00,
2013-11-09 21:04:00,44.8,38.0,30.12,West,269,3.0,6.0,77,0.00,,OVC090,0.00,VWS V14.01,2013-11-10 05:04:00,
2013-11-09 21:05:00,44.8,38.0,30.12,NW,310,2.0,6.0,77,0.00,,OVC090,0.00,VWS V14.01,2013-11-10 05:05:00,
2013-11-09 21:06:00,44.8,38.0,30.12,WNW,288,2.0,6.0,77,0.00,,OVC090,0.00,VWS V14.01,2013-11-10 05:06:00,
2013-11-09 21:11:00,44.6,38.2,30.12,NW,304,0.0,6.0,78,0.00,,OVC090,0.00,VWS V14.01,2013-11-10 05:11:00,
2013-11-09 21:16:00,44.4,38.0,30.12,West,279,0.0,6.0,78,0.00,,OVC090,0.00,VWS V14.01,2013-11-10 05:16:00,
2013-11-09 21:21:00,44.5,38.1,30.13,SW,220,2.0,6.0,78,0.00,,OVC090,0.00,VWS V14.01,2013-11-10 05:21:00,
2013-11-09 21:26:00,44.4,38.3,30.12,SW,227,3.0,6.0,79,0.00,,OVC090,0.00,VWS V14.01,2013-11-10 05:26:00,
2013-11-09 21:30:00,44.3,38.2,30.13,SSW,200,0.0,3.0,79,0.00,,CLR,0.00,VWS V15.00,2013-11-10 05:30:00,
2013-11-09 21:31:00,44.6,38.2,30.13,SW,227,2.0,4.5,78,0.00,,OVC090,0.00,VWS V14.01,2013-11-10 05:31:00,
2013-11-09 21:36:00,44.6,38.2,30.13,SSW,204,1.0,6.0,78,0.00,,OVC090,0.00,VWS V14.01,2013-11-10 05:36:00,
2013-11-09 21:41:00,44.5,38.1,30.13,SW,224,1.0,6.0,78,0.00,,OVC090,0.00,VWS V14.01,2013-11-10 05:41:00,
2013-11-09 21:46:00,44.5,38.4,30.12,SW,227,1.0,6.0,79,0.00,,OVC090,0.00,VWS V14.01,2013-11-10 05:46:00,
2013-11-09 21:51:00,44.5,38.4,30.13,SSW,198,1.0,6.0,79,0.00,,OVC090,0.00,VWS V14.01,2013-11-10 05:51:00,
2013-11-09 21:56:00,44.5,38.1,30.13,South,188,1.0,6.0,78,0.00,,OVC090,0.00,VWS V14.01,2013-11-10 05:56:00,
2013-11-09 22:00:00,44.2,38.8,30.13,SSW,201,0.0,1.5,81,0.00,,CLR,0.00,VWS V15.00,2013-11-10 06:00:00,
2013-11-09 22:01:00,44.5,38.4,30.13,SSW,206,1.0,3.0,79,0.00,,OVC060,0.00,VWS V14.01,2013-11-10 06:01:00,
2013-11-09 22:06:00,44.5,38.4,30.13,SSW,194,0.0,3.0,79,0.00,,OVC060,0.00,VWS V14.01,2013-11-10 06:06:00,
2013-11-09 22:11:00,44.4,38.3,30.13,SSW,193,0.0,3.0,79,0.00,,OVC060,0.00,VWS V14.01,2013-11-10 06:11:00,
2013-11-09 22:16:00,44.4,38.3,30.13,SSW,201,0.0,3.0,79,0.00,,OVC060,0.00,VWS V14.01,2013-11-10 06:16:00,
2013-11-09 22:21:00,44.4,38.3,30.13,SSW,201,0.0,3.0,79,0.00,,OVC060,0.00,VWS V14.01,2013-11-10 06:21:00,
2013-11-09 22:26:00,44.3,38.5,30.13,SSW,200,0.0,3.0,80,0.00,,OVC060,0.00,VWS V14.01,2013-11-10 06:26:00,
2013-11-09 22:30:00,44.2,38.8,30.13,WNW,295,0.0,1.5,81,0.00,,CLR,0.00,VWS V15.00,2013-11-10 06:30:00,
2013-11-09 22:31:00,44.3,38.2,30.13,SSW,201,0.0,1.5,79,0.00,,OVC060,0.00,VWS V14.01,2013-11-10 06:31:00,
2013-11-09 22:36:00,44.4,38.3,30.13,SSW,201,0.0,1.5,79,0.00,,OVC060,0.00,VWS V14.01,2013-11-10 06:36:00,
2013-11-09 22:41:00,44.4,38.3,30.13,SSW,201,0.0,1.5,79,0.00,,OVC060,0.00,VWS V14.01,2013-11-10 06:41:00,
2013-11-09 22:46:00,44.4,38.9,30.13,SSW,200,0.0,1.5,81,0.00,,OVC060,0.00,VWS V14.01,2013-11-10 06:46:00,
2013-11-09 22:51:00,44.3,38.8,30.13,SSW,200,0.0,1.5,81,0.00,,OVC060,0.00,VWS V14.01,2013-11-10 06:51:00,
2013-11-09 22:56:00,44.3,38.8,30.13,SSW,201,0.0,1.5,81,0.00,,OVC060,0.00,VWS V14.01,2013-11-10 06:56:00,
2013-11-09 23:00:00,44.8,38.7,30.13,WSW,253,0.0,1.5,79,0.00,,CLR,0.00,VWS V15.00,2013-11-10 07:00:00,
2013-11-09 23:01:00,44.2,38.4,30.13,SSW,201,0.0,0.0,80,0.00,,OVC065,0.00,VWS V14.01,2013-11-10 07:01:00,
2013-11-09 23:06:00,44.2,38.4,30.13,SSW,201,0.0,0.0,80,0.00,,OVC065,0.00,VWS V14.01,2013-11-10 07:06:00,
2013-11-09 23:11:00,44.3,38.5,30.13,SSW,201,0.0,0.0,80,0.00,,OVC065,0.00,VWS V14.01,2013-11-10 07:11:00,
2013-11-09 23:16:00,44.3,38.8,30.12,WNW,295,0.0,1.5,81,0.00,,OVC065,0.00,VWS V14.01,2013-11-10 07:16:00,
2013-11-09 23:21:00,44.3,38.8,30.13,WNW,295,0.0,1.5,81,0.00,,OVC065,0.00,VWS V14.01,2013-11-10 07:21:00,
2013-11-09 23:26:00,44.3,38.8,30.13,WNW,294,0.0,1.5,81,0.00,,OVC065,0.00,VWS V14.01,2013-11-10 07:26:00,
2013-11-09 23:30:00,44.7,38.9,30.13,WSW,254,0.0,0.0,80,0.00,,CLR,0.00,VWS V15.00,2013-11-10 07:30:00,
2013-11-09 23:31:00,44.3,38.5,30.13,WNW,295,0.0,0.0,80,0.00,,OVC065,0.00,VWS V14.01,2013-11-10 07:31:00,
2013-11-09 23:36:00,44.3,38.5,30.13,WNW,295,0.0,0.0,80,0.00,,OVC065,0.00,VWS V14.01,2013-11-10 07:36:00,
2013-11-09 23:41:00,44.5,38.7,30.13,WNW,295,0.0,0.0,80,0.00,,OVC065,0.00,VWS V14.01,2013-11-10 07:41:00,
2013-11-09 23:46:00,44.6,38.5,30.13,WNW,295,1.0,1.5,79,0.00,,OVC065,0.00,VWS V14.01,2013-11-10 07:46:00,
2013-11-09 23:51:00,44.7,38.6,30.13,West,279,1.0,1.5,79,0.00,,OVC065,0.00,VWS V14.01,2013-11-10 07:51:00,
2013-11-09 23:56:00,44.8,38.7,30.13,WSW,252,0.0,1.5,79,0.00,,OVC065,0.00,VWS V14.01,2013-11-10 07:56:00,